sensor_id;sensor_type;location;lat;lon;timestamp;temperature;humidity
74101;DHT22;62462;52.530;21.682;2023-05-21T00:00:46;16.30;59.90
74101;DHT22;62462;52.530;21.682;2023-05-21T00:03:13;16.30;60.30
74101;DHT22;62462;52.530;21.682;2023-05-21T00:05:42;16.20;60.30
74101;DHT22;62462;52.530;21.682;2023-05-21T00:08:12;16.20;60.20
74101;DHT22;62462;52.530;21.682;2023-05-21T00:10:38;16.20;60.00
74101;DHT22;62462;52.530;21.682;2023-05-21T00:13:04;16.20;60.20
74101;DHT22;62462;52.530;21.682;2023-05-21T00:15:30;16.20;60.60
74101;DHT22;62462;52.530;21.682;2023-05-21T00:17:55;16.20;60.40
74101;DHT22;62462;52.530;21.682;2023-05-21T00:20:21;16.20;59.90
74101;DHT22;62462;52.530;21.682;2023-05-21T00:22:47;16.10;60.00
74101;DHT22;62462;52.530;21.682;2023-05-21T00:25:13;16.10;60.20
74101;DHT22;62462;52.530;21.682;2023-05-21T00:27:39;16.10;60.30
74101;DHT22;62462;52.530;21.682;2023-05-21T00:30:05;16.00;60.30
74101;DHT22;62462;52.530;21.682;2023-05-21T00:32:31;16.00;60.70
74101;DHT22;62462;52.530;21.682;2023-05-21T00:34:57;16.00;60.50
74101;DHT22;62462;52.530;21.682;2023-05-21T00:37:23;15.90;60.60
74101;DHT22;62462;52.530;21.682;2023-05-21T00:39:49;15.90;60.50
74101;DHT22;62462;52.530;21.682;2023-05-21T00:42:16;15.90;60.60
74101;DHT22;62462;52.530;21.682;2023-05-21T00:44:43;15.90;60.70
74101;DHT22;62462;52.530;21.682;2023-05-21T00:47:11;15.90;60.80
74101;DHT22;62462;52.530;21.682;2023-05-21T00:49:38;15.80;60.60
74101;DHT22;62462;52.530;21.682;2023-05-21T00:52:04;15.80;60.70
74101;DHT22;62462;52.530;21.682;2023-05-21T00:54:30;15.70;60.50
74101;DHT22;62462;52.530;21.682;2023-05-21T00:56:56;15.60;60.60
74101;DHT22;62462;52.530;21.682;2023-05-21T00:59:23;15.60;60.80
74101;DHT22;62462;52.530;21.682;2023-05-21T01:01:49;15.50;60.80
74101;DHT22;62462;52.530;21.682;2023-05-21T01:04:24;15.50;61.00
74101;DHT22;62462;52.530;21.682;2023-05-21T01:06:50;15.50;61.10
74101;DHT22;62462;52.530;21.682;2023-05-21T01:09:18;15.50;60.80
74101;DHT22;62462;52.530;21.682;2023-05-21T01:11:46;15.40;60.90
74101;DHT22;62462;52.530;21.682;2023-05-21T01:14:15;15.40;60.50
74101;DHT22;62462;52.530;21.682;2023-05-21T01:16:43;15.40;60.50
74101;DHT22;62462;52.530;21.682;2023-05-21T01:19:14;15.30;60.20
74101;DHT22;62462;52.530;21.682;2023-05-21T01:21:43;15.30;60.40
74101;DHT22;62462;52.530;21.682;2023-05-21T01:24:09;15.20;60.80
74101;DHT22;62462;52.530;21.682;2023-05-21T01:26:35;15.10;60.80
74101;DHT22;62462;52.530;21.682;2023-05-21T01:29:06;15.10;60.80
74101;DHT22;62462;52.530;21.682;2023-05-21T01:32:15;15.10;61.00
74101;DHT22;62462;52.530;21.682;2023-05-21T01:34:56;15.10;61.30
74101;DHT22;62462;52.530;21.682;2023-05-21T01:37:36;15.00;60.60
74101;DHT22;62462;52.530;21.682;2023-05-21T01:40:10;14.90;61.10
74101;DHT22;62462;52.530;21.682;2023-05-21T01:42:40;14.80;61.10
74101;DHT22;62462;52.530;21.682;2023-05-21T01:45:07;14.80;61.00
74101;DHT22;62462;52.530;21.682;2023-05-21T01:47:35;14.80;60.90
74101;DHT22;62462;52.530;21.682;2023-05-21T01:50:03;14.80;61.00
74101;DHT22;62462;52.530;21.682;2023-05-21T01:52:30;14.80;62.10
74101;DHT22;62462;52.530;21.682;2023-05-21T01:54:56;14.80;61.00
74101;DHT22;62462;52.530;21.682;2023-05-21T01:57:22;14.80;61.00
74101;DHT22;62462;52.530;21.682;2023-05-21T01:59:47;14.70;61.20
74101;DHT22;62462;52.530;21.682;2023-05-21T02:02:13;14.70;61.20
74101;DHT22;62462;52.530;21.682;2023-05-21T02:04:39;14.70;62.00
74101;DHT22;62462;52.530;21.682;2023-05-21T02:07:08;14.70;62.70
74101;DHT22;62462;52.530;21.682;2023-05-21T02:09:35;14.70;62.60
74101;DHT22;62462;52.530;21.682;2023-05-21T02:12:02;14.70;62.00
74101;DHT22;62462;52.530;21.682;2023-05-21T02:14:28;14.70;62.40
74101;DHT22;62462;52.530;21.682;2023-05-21T02:16:54;14.70;63.60
74101;DHT22;62462;52.530;21.682;2023-05-21T02:19:19;14.70;62.70
74101;DHT22;62462;52.530;21.682;2023-05-21T02:21:45;14.80;62.60
74101;DHT22;62462;52.530;21.682;2023-05-21T02:24:11;14.70;62.40
74101;DHT22;62462;52.530;21.682;2023-05-21T02:26:36;14.70;62.60
74101;DHT22;62462;52.530;21.682;2023-05-21T02:29:02;14.70;62.50
74101;DHT22;62462;52.530;21.682;2023-05-21T02:31:28;14.70;62.70
74101;DHT22;62462;52.530;21.682;2023-05-21T02:33:54;14.70;62.60
74101;DHT22;62462;52.530;21.682;2023-05-21T02:36:20;14.60;62.80
74101;DHT22;62462;52.530;21.682;2023-05-21T02:38:46;14.60;62.80
74101;DHT22;62462;52.530;21.682;2023-05-21T02:41:12;14.60;62.80
74101;DHT22;62462;52.530;21.682;2023-05-21T02:43:38;14.60;62.80
74101;DHT22;62462;52.530;21.682;2023-05-21T02:46:05;14.60;62.80
74101;DHT22;62462;52.530;21.682;2023-05-21T02:48:31;14.60;62.80
74101;DHT22;62462;52.530;21.682;2023-05-21T02:50:57;14.60;62.80
74101;DHT22;62462;52.530;21.682;2023-05-21T02:53:23;14.60;62.70
74101;DHT22;62462;52.530;21.682;2023-05-21T02:55:49;14.60;62.70
74101;DHT22;62462;52.530;21.682;2023-05-21T02:58:15;14.60;62.50
74101;DHT22;62462;52.530;21.682;2023-05-21T03:00:41;14.50;62.70
74101;DHT22;62462;52.530;21.682;2023-05-21T03:03:06;14.50;62.90
74101;DHT22;62462;52.530;21.682;2023-05-21T03:05:32;14.40;63.00
74101;DHT22;62462;52.530;21.682;2023-05-21T03:07:58;14.40;62.80
74101;DHT22;62462;52.530;21.682;2023-05-21T03:10:24;14.40;62.70
74101;DHT22;62462;52.530;21.682;2023-05-21T03:12:49;14.40;62.70
74101;DHT22;62462;52.530;21.682;2023-05-21T03:15:15;14.40;62.70
74101;DHT22;62462;52.530;21.682;2023-05-21T03:17:41;14.30;62.60
74101;DHT22;62462;52.530;21.682;2023-05-21T03:20:09;14.30;63.00
74101;DHT22;62462;52.530;21.682;2023-05-21T03:22:42;14.30;62.90
74101;DHT22;62462;52.530;21.682;2023-05-21T03:25:08;14.30;63.20
74101;DHT22;62462;52.530;21.682;2023-05-21T03:27:34;14.20;63.20
74101;DHT22;62462;52.530;21.682;2023-05-21T03:30:01;14.20;63.50
74101;DHT22;62462;52.530;21.682;2023-05-21T03:32:26;14.20;63.70
74101;DHT22;62462;52.530;21.682;2023-05-21T03:34:52;14.30;63.90
74101;DHT22;62462;52.530;21.682;2023-05-21T03:37:18;14.30;63.90
74101;DHT22;62462;52.530;21.682;2023-05-21T03:39:44;14.30;64.20
74101;DHT22;62462;52.530;21.682;2023-05-21T03:42:09;14.30;64.30
74101;DHT22;62462;52.530;21.682;2023-05-21T03:44:35;14.40;64.50
74101;DHT22;62462;52.530;21.682;2023-05-21T03:47:01;14.40;64.70
74101;DHT22;62462;52.530;21.682;2023-05-21T03:49:26;14.50;64.90
74101;DHT22;62462;52.530;21.682;2023-05-21T03:51:52;14.50;65.20
74101;DHT22;62462;52.530;21.682;2023-05-21T03:54:18;14.50;65.00
74101;DHT22;62462;52.530;21.682;2023-05-21T03:56:44;14.60;64.80
74101;DHT22;62462;52.530;21.682;2023-05-21T03:59:09;14.70;64.60
74101;DHT22;62462;52.530;21.682;2023-05-21T04:01:35;14.80;64.40
74101;DHT22;62462;52.530;21.682;2023-05-21T04:04:01;14.80;64.30
74101;DHT22;62462;52.530;21.682;2023-05-21T04:06:26;14.90;64.30
74101;DHT22;62462;52.530;21.682;2023-05-21T04:08:52;15.00;63.90
74101;DHT22;62462;52.530;21.682;2023-05-21T04:11:18;15.00;63.70
74101;DHT22;62462;52.530;21.682;2023-05-21T04:13:44;15.10;63.40
74101;DHT22;62462;52.530;21.682;2023-05-21T04:16:10;15.20;63.50
74101;DHT22;62462;52.530;21.682;2023-05-21T04:18:39;15.20;63.30
74101;DHT22;62462;52.530;21.682;2023-05-21T04:21:06;15.30;63.20
74101;DHT22;62462;52.530;21.682;2023-05-21T04:23:32;15.30;63.00
74101;DHT22;62462;52.530;21.682;2023-05-21T04:25:58;15.50;63.00
74101;DHT22;62462;52.530;21.682;2023-05-21T04:28:23;15.50;62.80
74101;DHT22;62462;52.530;21.682;2023-05-21T04:30:53;15.50;62.80
74101;DHT22;62462;52.530;21.682;2023-05-21T04:33:23;15.60;62.70
74101;DHT22;62462;52.530;21.682;2023-05-21T04:35:50;15.70;62.50
74101;DHT22;62462;52.530;21.682;2023-05-21T04:38:17;15.80;62.10
74101;DHT22;62462;52.530;21.682;2023-05-21T04:40:49;15.80;61.90
74101;DHT22;62462;52.530;21.682;2023-05-21T04:43:15;15.90;61.80
74101;DHT22;62462;52.530;21.682;2023-05-21T04:45:42;16.00;61.60
74101;DHT22;62462;52.530;21.682;2023-05-21T04:48:08;16.10;61.30
74101;DHT22;62462;52.530;21.682;2023-05-21T04:50:34;16.20;60.90
74101;DHT22;62462;52.530;21.682;2023-05-21T04:53:01;16.30;60.70
74101;DHT22;62462;52.530;21.682;2023-05-21T04:55:27;16.40;60.50
74101;DHT22;62462;52.530;21.682;2023-05-21T04:57:53;16.50;60.20
74101;DHT22;62462;52.530;21.682;2023-05-21T05:00:19;16.50;60.20
74101;DHT22;62462;52.530;21.682;2023-05-21T05:02:45;16.70;60.00
74101;DHT22;62462;52.530;21.682;2023-05-21T05:05:10;16.80;59.30
74101;DHT22;62462;52.530;21.682;2023-05-21T05:07:36;16.90;58.90
74101;DHT22;62462;52.530;21.682;2023-05-21T05:10:02;17.00;58.70
74101;DHT22;62462;52.530;21.682;2023-05-21T05:12:28;17.00;58.60
74101;DHT22;62462;52.530;21.682;2023-05-21T05:14:54;17.10;57.60
74101;DHT22;62462;52.530;21.682;2023-05-21T05:17:19;17.20;57.70
74101;DHT22;62462;52.530;21.682;2023-05-21T05:19:45;17.30;57.30
74101;DHT22;62462;52.530;21.682;2023-05-21T05:22:11;17.40;57.30
74101;DHT22;62462;52.530;21.682;2023-05-21T05:24:36;17.50;57.40
74101;DHT22;62462;52.530;21.682;2023-05-21T05:27:02;17.60;56.70
74101;DHT22;62462;52.530;21.682;2023-05-21T05:29:28;17.70;56.00
74101;DHT22;62462;52.530;21.682;2023-05-21T05:31:53;17.70;56.10
74101;DHT22;62462;52.530;21.682;2023-05-21T05:34:19;17.80;56.00
74101;DHT22;62462;52.530;21.682;2023-05-21T05:36:45;17.90;55.30
74101;DHT22;62462;52.530;21.682;2023-05-21T05:39:11;18.00;55.40
74101;DHT22;62462;52.530;21.682;2023-05-21T05:41:37;18.10;55.60
74101;DHT22;62462;52.530;21.682;2023-05-21T05:44:03;18.20;55.70
74101;DHT22;62462;52.530;21.682;2023-05-21T05:46:28;18.30;55.00
74101;DHT22;62462;52.530;21.682;2023-05-21T05:48:54;18.40;55.10
74101;DHT22;62462;52.530;21.682;2023-05-21T05:51:20;18.50;55.10
74101;DHT22;62462;52.530;21.682;2023-05-21T05:53:46;18.50;54.80
74101;DHT22;62462;52.530;21.682;2023-05-21T05:56:11;18.60;54.90
74101;DHT22;62462;52.530;21.682;2023-05-21T05:58:37;18.80;55.10
74101;DHT22;62462;52.530;21.682;2023-05-21T06:01:03;18.80;54.30
74101;DHT22;62462;52.530;21.682;2023-05-21T06:03:28;18.90;53.40
74101;DHT22;62462;52.530;21.682;2023-05-21T06:05:54;18.90;53.10
74101;DHT22;62462;52.530;21.682;2023-05-21T06:08:20;19.00;52.50
74101;DHT22;62462;52.530;21.682;2023-05-21T06:10:46;19.00;52.70
74101;DHT22;62462;52.530;21.682;2023-05-21T06:13:12;19.10;52.90
74101;DHT22;62462;52.530;21.682;2023-05-21T06:15:37;19.20;52.60
74101;DHT22;62462;52.530;21.682;2023-05-21T06:18:07;19.30;52.20
74101;DHT22;62462;52.530;21.682;2023-05-21T06:20:33;19.40;52.20
74101;DHT22;62462;52.530;21.682;2023-05-21T06:22:59;19.50;52.20
74101;DHT22;62462;52.530;21.682;2023-05-21T06:25:25;19.60;51.40
74101;DHT22;62462;52.530;21.682;2023-05-21T06:27:51;19.70;50.40
74101;DHT22;62462;52.530;21.682;2023-05-21T06:30:17;19.70;49.40
74101;DHT22;62462;52.530;21.682;2023-05-21T06:32:42;19.70;49.70
74101;DHT22;62462;52.530;21.682;2023-05-21T06:35:08;19.70;49.60
74101;DHT22;62462;52.530;21.682;2023-05-21T06:37:34;19.80;49.90
74101;DHT22;62462;52.530;21.682;2023-05-21T06:40:00;19.90;49.70
74101;DHT22;62462;52.530;21.682;2023-05-21T06:42:26;19.90;49.50
74101;DHT22;62462;52.530;21.682;2023-05-21T06:44:52;20.00;50.20
74101;DHT22;62462;52.530;21.682;2023-05-21T06:47:17;20.10;50.00
74101;DHT22;62462;52.530;21.682;2023-05-21T06:49:43;20.30;50.20
74101;DHT22;62462;52.530;21.682;2023-05-21T06:52:09;20.40;50.60
74101;DHT22;62462;52.530;21.682;2023-05-21T06:54:35;20.60;50.60
74101;DHT22;62462;52.530;21.682;2023-05-21T06:57:01;20.70;50.50
74101;DHT22;62462;52.530;21.682;2023-05-21T06:59:27;20.80;50.00
74101;DHT22;62462;52.530;21.682;2023-05-21T07:01:52;20.80;49.30
74101;DHT22;62462;52.530;21.682;2023-05-21T07:04:18;20.90;48.80
74101;DHT22;62462;52.530;21.682;2023-05-21T07:06:44;21.00;49.00
74101;DHT22;62462;52.530;21.682;2023-05-21T07:09:09;21.10;48.00
74101;DHT22;62462;52.530;21.682;2023-05-21T07:11:35;21.10;47.60
74101;DHT22;62462;52.530;21.682;2023-05-21T07:14:01;21.10;46.90
74101;DHT22;62462;52.530;21.682;2023-05-21T07:16:28;21.10;46.90
74101;DHT22;62462;52.530;21.682;2023-05-21T07:18:54;21.20;47.90
74101;DHT22;62462;52.530;21.682;2023-05-21T07:21:20;21.40;48.50
74101;DHT22;62462;52.530;21.682;2023-05-21T07:23:45;21.50;48.90
74101;DHT22;62462;52.530;21.682;2023-05-21T07:26:12;21.60;48.10
74101;DHT22;62462;52.530;21.682;2023-05-21T07:28:38;21.70;47.80
74101;DHT22;62462;52.530;21.682;2023-05-21T07:31:04;21.70;45.80
74101;DHT22;62462;52.530;21.682;2023-05-21T07:33:29;21.70;47.70
74101;DHT22;62462;52.530;21.682;2023-05-21T07:35:55;21.80;48.00
74101;DHT22;62462;52.530;21.682;2023-05-21T07:38:21;22.00;47.30
74101;DHT22;62462;52.530;21.682;2023-05-21T07:40:47;22.10;46.10
74101;DHT22;62462;52.530;21.682;2023-05-21T07:43:12;22.10;45.20
74101;DHT22;62462;52.530;21.682;2023-05-21T07:45:38;22.20;46.50
74101;DHT22;62462;52.530;21.682;2023-05-21T07:48:04;22.30;45.80
74101;DHT22;62462;52.530;21.682;2023-05-21T07:50:30;22.30;44.10
74101;DHT22;62462;52.530;21.682;2023-05-21T07:52:55;22.30;43.90
74101;DHT22;62462;52.530;21.682;2023-05-21T07:55:21;22.40;44.70
74101;DHT22;62462;52.530;21.682;2023-05-21T07:57:47;22.50;45.70
74101;DHT22;62462;52.530;21.682;2023-05-21T08:00:14;22.60;44.10
74101;DHT22;62462;52.530;21.682;2023-05-21T08:02:39;22.80;45.10
74101;DHT22;62462;52.530;21.682;2023-05-21T08:05:05;22.90;45.60
74101;DHT22;62462;52.530;21.682;2023-05-21T08:07:31;22.90;43.60
74101;DHT22;62462;52.530;21.682;2023-05-21T08:09:57;22.90;42.30
74101;DHT22;62462;52.530;21.682;2023-05-21T08:12:23;23.00;44.10
74101;DHT22;62462;52.530;21.682;2023-05-21T08:14:49;23.20;45.20
74101;DHT22;62462;52.530;21.682;2023-05-21T08:17:15;23.30;42.70
74101;DHT22;62462;52.530;21.682;2023-05-21T08:19:41;23.40;41.90
74101;DHT22;62462;52.530;21.682;2023-05-21T08:22:07;23.30;39.50
74101;DHT22;62462;52.530;21.682;2023-05-21T08:24:33;23.30;42.60
74101;DHT22;62462;52.530;21.682;2023-05-21T08:26:59;23.30;42.20
74101;DHT22;62462;52.530;21.682;2023-05-21T08:29:25;23.40;40.30
74101;DHT22;62462;52.530;21.682;2023-05-21T08:31:50;23.50;40.30
74101;DHT22;62462;52.530;21.682;2023-05-21T08:34:16;23.50;41.10
74101;DHT22;62462;52.530;21.682;2023-05-21T08:36:43;23.70;41.00
74101;DHT22;62462;52.530;21.682;2023-05-21T08:39:10;23.80;39.90
74101;DHT22;62462;52.530;21.682;2023-05-21T08:41:40;23.80;40.40
74101;DHT22;62462;52.530;21.682;2023-05-21T08:44:10;23.80;37.80
74101;DHT22;62462;52.530;21.682;2023-05-21T08:46:39;23.80;39.00
74101;DHT22;62462;52.530;21.682;2023-05-21T08:49:10;23.90;40.00
74101;DHT22;62462;52.530;21.682;2023-05-21T08:51:36;24.00;40.20
74101;DHT22;62462;52.530;21.682;2023-05-21T08:54:04;24.10;38.60
74101;DHT22;62462;52.530;21.682;2023-05-21T08:56:33;24.20;37.50
74101;DHT22;62462;52.530;21.682;2023-05-21T08:59:01;24.10;35.20
74101;DHT22;62462;52.530;21.682;2023-05-21T09:01:27;24.10;37.30
74101;DHT22;62462;52.530;21.682;2023-05-21T09:03:55;24.20;38.40
74101;DHT22;62462;52.530;21.682;2023-05-21T09:06:22;24.40;34.90
74101;DHT22;62462;52.530;21.682;2023-05-21T09:08:57;24.40;35.60
74101;DHT22;62462;52.530;21.682;2023-05-21T09:11:25;24.50;35.80
74101;DHT22;62462;52.530;21.682;2023-05-21T09:13:52;24.50;31.90
74101;DHT22;62462;52.530;21.682;2023-05-21T09:16:18;24.50;32.60
74101;DHT22;62462;52.530;21.682;2023-05-21T09:18:44;24.60;35.10
74101;DHT22;62462;52.530;21.682;2023-05-21T09:21:29;24.60;33.50
74101;DHT22;62462;52.530;21.682;2023-05-21T09:23:59;24.40;32.80
74101;DHT22;62462;52.530;21.682;2023-05-21T09:26:26;24.30;32.20
74101;DHT22;62462;52.530;21.682;2023-05-21T09:28:57;24.40;34.00
74101;DHT22;62462;52.530;21.682;2023-05-21T09:31:23;24.50;33.30
74101;DHT22;62462;52.530;21.682;2023-05-21T09:33:50;24.60;33.50
74101;DHT22;62462;52.530;21.682;2023-05-21T09:36:19;24.50;33.20
74101;DHT22;62462;52.530;21.682;2023-05-21T09:38:46;24.60;35.10
74101;DHT22;62462;52.530;21.682;2023-05-21T09:41:12;24.80;36.10
74101;DHT22;62462;52.530;21.682;2023-05-21T09:43:41;25.10;36.50
74101;DHT22;62462;52.530;21.682;2023-05-21T09:46:07;25.30;34.60
74101;DHT22;62462;52.530;21.682;2023-05-21T09:48:37;25.30;31.70
74101;DHT22;62462;52.530;21.682;2023-05-21T09:51:18;25.20;31.10
74101;DHT22;62462;52.530;21.682;2023-05-21T09:53:53;25.10;31.10
74101;DHT22;62462;52.530;21.682;2023-05-21T09:56:29;25.20;32.90
74101;DHT22;62462;52.530;21.682;2023-05-21T09:59:02;25.40;34.20
74101;DHT22;62462;52.530;21.682;2023-05-21T10:01:30;25.50;34.60
74101;DHT22;62462;52.530;21.682;2023-05-21T10:04:00;25.60;31.80
74101;DHT22;62462;52.530;21.682;2023-05-21T10:06:30;25.60;33.40
74101;DHT22;62462;52.530;21.682;2023-05-21T10:08:58;25.60;32.80
74101;DHT22;62462;52.530;21.682;2023-05-21T10:11:31;25.70;34.10
74101;DHT22;62462;52.530;21.682;2023-05-21T10:14:08;25.90;32.50
74101;DHT22;62462;52.530;21.682;2023-05-21T10:16:35;25.80;30.70
74101;DHT22;62462;52.530;21.682;2023-05-21T10:19:01;25.60;31.00
74101;DHT22;62462;52.530;21.682;2023-05-21T10:21:29;25.50;30.60
74101;DHT22;62462;52.530;21.682;2023-05-21T10:23:56;25.40;30.50
74101;DHT22;62462;52.530;21.682;2023-05-21T10:26:25;25.30;31.60
74101;DHT22;62462;52.530;21.682;2023-05-21T10:28:55;25.30;33.50
74101;DHT22;62462;52.530;21.682;2023-05-21T10:31:21;25.60;33.40
74101;DHT22;62462;52.530;21.682;2023-05-21T10:33:47;25.90;32.90
74101;DHT22;62462;52.530;21.682;2023-05-21T10:36:15;25.90;30.00
74101;DHT22;62462;52.530;21.682;2023-05-21T10:38:43;25.90;32.10
74101;DHT22;62462;52.530;21.682;2023-05-21T10:41:10;26.10;33.10
74101;DHT22;62462;52.530;21.682;2023-05-21T10:57:45;27.00;31.50
74101;DHT22;62462;52.530;21.682;2023-05-21T11:00:15;26.90;29.10
74101;DHT22;62462;52.530;21.682;2023-05-21T11:02:42;26.80;30.20
74101;DHT22;62462;52.530;21.682;2023-05-21T11:05:09;26.80;29.80
74101;DHT22;62462;52.530;21.682;2023-05-21T11:07:57;26.80;29.50
74101;DHT22;62462;52.530;21.682;2023-05-21T11:10:44;26.80;29.00
74101;DHT22;62462;52.530;21.682;2023-05-21T11:13:16;26.70;26.60
74101;DHT22;62462;52.530;21.682;2023-05-21T11:21:09;26.60;28.70
74101;DHT22;62462;52.530;21.682;2023-05-21T11:24:01;26.70;28.10
74101;DHT22;62462;52.530;21.682;2023-05-21T11:27:28;26.70;28.70
74101;DHT22;62462;52.530;21.682;2023-05-21T11:29:19;27.00;31.00
74101;DHT22;62462;52.530;21.682;2023-05-21T11:31:46;27.30;30.30
74101;DHT22;62462;52.530;21.682;2023-05-21T11:34:19;27.40;30.40
74101;DHT22;62462;52.530;21.682;2023-05-21T11:37:29;27.60;30.20
74101;DHT22;62462;52.530;21.682;2023-05-21T11:40:17;27.70;26.70
74101;DHT22;62462;52.530;21.682;2023-05-21T11:42:42;27.40;26.40
74101;DHT22;62462;52.530;21.682;2023-05-21T11:45:09;27.20;27.40
74101;DHT22;62462;52.530;21.682;2023-05-21T11:47:35;27.10;26.90
74101;DHT22;62462;52.530;21.682;2023-05-21T11:50:02;27.00;26.10
74101;DHT22;62462;52.530;21.682;2023-05-21T11:52:30;26.80;26.30
74101;DHT22;62462;52.530;21.682;2023-05-21T11:54:56;26.80;26.40
74101;DHT22;62462;52.530;21.682;2023-05-21T11:57:27;26.80;27.80
74101;DHT22;62462;52.530;21.682;2023-05-21T11:59:57;27.00;26.60
74101;DHT22;62462;52.530;21.682;2023-05-21T12:02:25;27.10;27.40
74101;DHT22;62462;52.530;21.682;2023-05-21T12:04:54;27.30;27.50
74101;DHT22;62462;52.530;21.682;2023-05-21T12:07:26;27.50;27.70
74101;DHT22;62462;52.530;21.682;2023-05-21T12:09:53;27.60;28.40
74101;DHT22;62462;52.530;21.682;2023-05-21T12:12:24;27.70;27.20
74101;DHT22;62462;52.530;21.682;2023-05-21T12:14:54;27.70;27.00
74101;DHT22;62462;52.530;21.682;2023-05-21T12:17:24;27.80;28.50
74101;DHT22;62462;52.530;21.682;2023-05-21T12:19:51;28.00;28.50
74101;DHT22;62462;52.530;21.682;2023-05-21T12:22:18;28.10;28.30
74101;DHT22;62462;52.530;21.682;2023-05-21T12:24:44;28.20;28.10
74101;DHT22;62462;52.530;21.682;2023-05-21T12:27:11;28.20;27.50
74101;DHT22;62462;52.530;21.682;2023-05-21T12:29:42;28.30;28.20
74101;DHT22;62462;52.530;21.682;2023-05-21T12:32:09;28.30;26.70
74101;DHT22;62462;52.530;21.682;2023-05-21T12:35:02;28.30;26.30
74101;DHT22;62462;52.530;21.682;2023-05-21T12:37:29;28.10;26.20
74101;DHT22;62462;52.530;21.682;2023-05-21T12:40:02;28.20;27.40
74101;DHT22;62462;52.530;21.682;2023-05-21T12:42:37;28.30;28.50
74101;DHT22;62462;52.530;21.682;2023-05-21T12:45:08;28.50;27.40
74101;DHT22;62462;52.530;21.682;2023-05-21T12:47:34;28.50;27.40
74101;DHT22;62462;52.530;21.682;2023-05-21T12:50:01;28.70;28.80
74101;DHT22;62462;52.530;21.682;2023-05-21T12:52:28;28.80;27.00
74101;DHT22;62462;52.530;21.682;2023-05-21T12:54:55;28.80;25.70
74101;DHT22;62462;52.530;21.682;2023-05-21T12:57:35;28.70;27.00
74101;DHT22;62462;52.530;21.682;2023-05-21T13:00:04;28.40;25.40
74101;DHT22;62462;52.530;21.682;2023-05-21T13:02:42;28.30;27.80
74101;DHT22;62462;52.530;21.682;2023-05-21T13:05:14;28.30;25.90
74101;DHT22;62462;52.530;21.682;2023-05-21T13:07:41;28.30;26.50
74101;DHT22;62462;52.530;21.682;2023-05-21T13:10:08;28.50;26.70
74101;DHT22;62462;52.530;21.682;2023-05-21T13:12:34;28.60;25.70
74101;DHT22;62462;52.530;21.682;2023-05-21T13:15:02;28.60;24.80
74101;DHT22;62462;52.530;21.682;2023-05-21T13:17:29;28.40;25.60
74101;DHT22;62462;52.530;21.682;2023-05-21T13:20:11;28.40;26.90
74101;DHT22;62462;52.530;21.682;2023-05-21T13:22:39;28.60;27.10
74101;DHT22;62462;52.530;21.682;2023-05-21T13:25:12;28.60;25.40
74101;DHT22;62462;52.530;21.682;2023-05-21T13:27:41;28.60;26.10
74101;DHT22;62462;52.530;21.682;2023-05-21T13:30:07;28.70;26.20
74101;DHT22;62462;52.530;21.682;2023-05-21T13:32:35;28.70;25.20
74101;DHT22;62462;52.530;21.682;2023-05-21T13:35:01;28.60;24.90
74101;DHT22;62462;52.530;21.682;2023-05-21T13:37:27;28.50;25.20
74101;DHT22;62462;52.530;21.682;2023-05-21T13:39:52;28.40;25.90
74101;DHT22;62462;52.530;21.682;2023-05-21T13:42:18;28.40;26.00
74101;DHT22;62462;52.530;21.682;2023-05-21T13:44:46;28.60;26.80
74101;DHT22;62462;52.530;21.682;2023-05-21T13:47:12;28.80;27.50
74101;DHT22;62462;52.530;21.682;2023-05-21T13:49:38;29.00;27.10
74101;DHT22;62462;52.530;21.682;2023-05-21T13:52:05;29.20;25.70
74101;DHT22;62462;52.530;21.682;2023-05-21T13:54:31;29.20;25.60
74101;DHT22;62462;52.530;21.682;2023-05-21T13:56:57;29.20;26.40
74101;DHT22;62462;52.530;21.682;2023-05-21T13:59:23;29.30;27.10
74101;DHT22;62462;52.530;21.682;2023-05-21T14:01:49;29.40;25.70
74101;DHT22;62462;52.530;21.682;2023-05-21T14:04:17;29.40;25.40
74101;DHT22;62462;52.530;21.682;2023-05-21T14:06:43;29.20;24.80
74101;DHT22;62462;52.530;21.682;2023-05-21T14:09:09;29.10;25.20
74101;DHT22;62462;52.530;21.682;2023-05-21T14:11:35;29.10;26.30
74101;DHT22;62462;52.530;21.682;2023-05-21T14:14:01;29.20;26.40
74101;DHT22;62462;52.530;21.682;2023-05-21T14:16:27;29.30;26.80
74101;DHT22;62462;52.530;21.682;2023-05-21T14:18:53;29.30;25.00
74101;DHT22;62462;52.530;21.682;2023-05-21T14:21:20;29.30;26.30
74101;DHT22;62462;52.530;21.682;2023-05-21T14:23:46;29.40;26.10
74101;DHT22;62462;52.530;21.682;2023-05-21T14:26:12;29.30;26.30
74101;DHT22;62462;52.530;21.682;2023-05-21T14:28:38;29.30;25.70
74101;DHT22;62462;52.530;21.682;2023-05-21T14:31:04;29.20;25.20
74101;DHT22;62462;52.530;21.682;2023-05-21T14:33:30;29.20;27.20
74101;DHT22;62462;52.530;21.682;2023-05-21T14:35:56;29.10;25.70
74101;DHT22;62462;52.530;21.682;2023-05-21T14:38:22;29.10;26.30
74101;DHT22;62462;52.530;21.682;2023-05-21T14:40:47;29.20;26.50
74101;DHT22;62462;52.530;21.682;2023-05-21T14:43:13;29.10;26.10
74101;DHT22;62462;52.530;21.682;2023-05-21T14:45:39;28.80;24.90
74101;DHT22;62462;52.530;21.682;2023-05-21T14:48:05;28.60;25.20
74101;DHT22;62462;52.530;21.682;2023-05-21T14:50:39;28.70;26.80
74101;DHT22;62462;52.530;21.682;2023-05-21T14:53:09;28.80;27.50
74101;DHT22;62462;52.530;21.682;2023-05-21T14:55:35;28.90;27.00
74101;DHT22;62462;52.530;21.682;2023-05-21T14:58:04;28.90;26.80
74101;DHT22;62462;52.530;21.682;2023-05-21T15:00:31;29.00;26.90
74101;DHT22;62462;52.530;21.682;2023-05-21T15:02:57;29.00;26.50
74101;DHT22;62462;52.530;21.682;2023-05-21T15:05:23;29.00;26.20
74101;DHT22;62462;52.530;21.682;2023-05-21T15:07:49;29.00;27.10
74101;DHT22;62462;52.530;21.682;2023-05-21T15:10:15;29.10;27.30
74101;DHT22;62462;52.530;21.682;2023-05-21T15:12:41;29.10;27.00
74101;DHT22;62462;52.530;21.682;2023-05-21T15:15:07;29.00;27.20
74101;DHT22;62462;52.530;21.682;2023-05-21T15:17:34;29.10;27.20
74101;DHT22;62462;52.530;21.682;2023-05-21T15:20:00;29.00;27.30
74101;DHT22;62462;52.530;21.682;2023-05-21T15:22:35;29.00;27.60
74101;DHT22;62462;52.530;21.682;2023-05-21T15:25:01;28.90;27.70
74101;DHT22;62462;52.530;21.682;2023-05-21T15:27:28;28.80;27.10
74101;DHT22;62462;52.530;21.682;2023-05-21T15:29:53;28.70;27.50
74101;DHT22;62462;52.530;21.682;2023-05-21T15:32:19;28.60;27.20
74101;DHT22;62462;52.530;21.682;2023-05-21T15:34:46;28.60;27.50
74101;DHT22;62462;52.530;21.682;2023-05-21T15:37:12;28.50;27.40